Time;durP1;ratioP1;P1;durP2;ratioP2;P2;SDS_P1;SDS_P2;PMS_P1;PMS_P2;Temp;Humidity;BMP_temperature;BMP_pressure;BME280_temperature;BME280_humidity;BME280_pressure;Samples;Min_cycle;Max_cycle;Signal;HPM_P1;HPM_P2
2022/12/09 00:00:37;;;;;;;0.77;0.77;;;-1.40;99.60;;;;;;5048382;28;20721;-69
2022/12/09 00:03:04;;;;;;;2.10;1.95;;;-1.40;99.90;;;;;;5047992;28;20191;-69
2022/12/09 00:05:31;;;;;;;1.65;1.55;;;-1.40;99.70;;;;;;5048395;28;20209;-69
2022/12/09 00:07:58;;;;;;;1.27;1.25;;;-1.40;99.80;;;;;;5049859;28;20201;-68
2022/12/09 00:10:24;;;;;;;1.13;1.08;;;-1.50;99.90;;;;;;5049002;28;20207;-68
2022/12/09 00:12:55;;;;;;;1.25;1.25;;;-1.50;99.70;;;;;;5053640;28;20297;-68
2022/12/09 00:15:22;;;;;;;2.38;2.17;;;-1.40;99.70;;;;;;5045683;28;20216;-68
2022/12/09 00:17:49;;;;;;;2.28;2.08;;;-1.50;99.90;;;;;;5047321;28;20231;-68
2022/12/09 00:20:16;;;;;;;1.90;1.80;;;-1.50;99.60;;;;;;5047227;28;20287;-68
2022/12/09 00:22:43;;;;;;;0.82;0.82;;;-1.70;99.90;;;;;;5047221;28;20205;-68
2022/12/09 00:25:10;;;;;;;2.22;1.40;;;-1.50;99.70;;;;;;5050367;28;20192;-69
2022/12/09 00:27:37;;;;;;;2.28;2.03;;;-1.50;99.80;;;;;;5046506;28;20205;-69
2022/12/09 00:30:06;;;;;;;1.30;1.20;;;-1.50;99.90;;;;;;5046641;28;20718;-69
2022/12/09 00:32:33;;;;;;;1.23;1.23;;;-1.60;99.90;;;;;;5047337;28;20209;-68
2022/12/09 00:35:00;;;;;;;1.10;1.00;;;-1.60;99.90;;;;;;5048037;28;20196;-68
2022/12/09 00:37:27;;;;;;;1.13;1.13;;;-1.50;99.90;;;;;;5049431;28;20218;-68
2022/12/09 00:39:54;;;;;;;1.98;1.55;;;-1.60;99.90;;;;;;5046803;28;20209;-69
2022/12/09 00:42:20;;;;;;;0.60;0.60;;;-1.60;99.90;;;;;;5047941;28;20195;-68
2022/12/09 00:44:47;;;;;;;0.55;0.55;;;-1.50;99.90;;;;;;5046347;28;20203;-69
2022/12/09 00:47:15;;;;;;;0.50;0.50;;;-1.70;99.90;;;;;;5049012;28;20199;-70
2022/12/09 00:49:42;;;;;;;2.15;1.50;;;-1.90;99.90;;;;;;5044445;28;20205;-69
2022/12/09 00:52:09;;;;;;;0.93;0.65;;;-1.60;99.80;;;;;;5047136;28;20201;-69
2022/12/09 00:54:36;;;;;;;1.58;1.40;;;-1.70;99.70;;;;;;5046708;28;20204;-70
2022/12/09 00:57:02;;;;;;;1.33;1.10;;;-1.60;99.90;;;;;;5046182;28;20198;-70
2022/12/09 00:59:29;;;;;;;3.15;1.88;;;-1.70;99.90;;;;;;5046596;28;20232;-70
2022/12/09 01:01:56;;;;;;;2.60;2.40;;;-1.70;99.80;;;;;;5048166;28;20222;-69
2022/12/09 01:04:24;;;;;;;1.48;1.35;;;-1.70;99.90;;;;;;5047204;28;20203;-69
2022/12/09 01:06:51;;;;;;;3.75;3.35;;;-1.80;99.90;;;;;;5047482;28;20207;-70
2022/12/09 01:09:18;;;;;;;1.60;1.50;;;-1.80;99.90;;;;;;5046252;28;20204;-69
2022/12/09 01:11:45;;;;;;;1.58;1.48;;;-1.80;99.70;;;;;;5046855;28;20202;-70
2022/12/09 01:14:12;;;;;;;3.13;2.58;;;-1.90;99.50;;;;;;5048562;28;20194;-69
2022/12/09 01:16:39;;;;;;;2.45;1.83;;;-1.90;99.50;;;;;;5046551;28;20568;-69
2022/12/09 01:19:07;;;;;;;1.52;1.13;;;-1.90;99.30;;;;;;5049984;28;20224;-68
2022/12/09 01:21:36;;;;;;;2.33;2.22;;;-1.90;99.40;;;;;;5046357;28;20279;-70
2022/12/09 01:24:07;;;;;;;4.80;2.58;;;-2.00;99.30;;;;;;5047688;28;20198;-69
2022/12/09 01:26:34;;;;;;;0.70;0.70;;;-2.00;99.20;;;;;;5048505;28;20186;-68
2022/12/09 01:29:01;;;;;;;0.95;0.95;;;-2.00;99.30;;;;;;5046551;28;20695;-69
2022/12/09 01:31:28;;;;;;;0.98;0.98;;;-2.00;99.40;;;;;;5045936;28;20541;-69
2022/12/09 01:33:55;;;;;;;1.13;1.13;;;-2.10;99.50;;;;;;5049908;28;20195;-69
2022/12/09 01:36:23;;;;;;;0.88;0.85;;;-2.10;99.70;;;;;;5045932;28;20229;-69
2022/12/09 01:38:52;;;;;;;2.15;1.20;;;-1.90;99.90;;;;;;5045533;28;20504;-69
2022/12/09 01:41:20;;;;;;;3.20;1.30;;;-2.10;99.90;;;;;;5045957;28;20656;-71
2022/12/09 01:44:09;;;;;;;1.30;1.20;;;-2.10;99.90;;;;;;5046144;28;20563;-69
2022/12/09 01:46:36;;;;;;;1.13;1.02;;;-2.10;99.90;;;;;;5046559;28;20202;-70
2022/12/09 01:49:04;;;;;;;1.20;1.20;;;-2.10;99.90;;;;;;5046763;28;20197;-70
2022/12/09 01:51:31;;;;;;;0.98;0.98;;;-2.10;99.90;;;;;;5047438;28;20210;-70
2022/12/09 01:54:00;;;;;;;1.50;1.40;;;-2.10;99.90;;;;;;5045724;28;20190;-69
2022/12/09 01:56:30;;;;;;;2.50;2.30;;;-2.10;99.90;;;;;;5045211;28;20280;-69
2022/12/09 01:59:01;;;;;;;7.53;1.33;;;-2.10;99.90;;;;;;5045897;28;20222;-70
2022/12/09 02:01:28;;;;;;;1.35;1.13;;;-2.00;99.90;;;;;;5045936;28;20195;-70
2022/12/09 02:03:55;;;;;;;1.50;1.40;;;-2.10;99.90;;;;;;5045338;28;20199;-70
2022/12/09 02:06:21;;;;;;;0.70;0.70;;;-2.10;99.90;;;;;;5045968;28;20205;-72
2022/12/09 02:08:50;;;;;;;1.70;1.60;;;-2.10;99.90;;;;;;5046101;28;20226;-70
2022/12/09 02:11:28;;;;;;;2.13;2.03;;;-2.10;99.80;;;;;;5046325;28;20565;-70
2022/12/09 02:14:04;;;;;;;1.90;1.80;;;-2.10;99.60;;;;;;5046727;28;20907;-70
2022/12/09 02:16:36;;;;;;;0.80;0.80;;;-2.30;99.90;;;;;;5045692;28;20240;-70
2022/12/09 02:19:17;;;;;;;2.60;2.40;;;-2.20;99.40;;;;;;5043742;28;20238;-70
2022/12/09 02:21:53;;;;;;;0.90;0.90;;;-2.40;99.90;;;;;;5044147;28;20196;-70
2022/12/09 02:24:26;;;;;;;1.20;1.15;;;-2.20;99.90;;;;;;5046975;28;20196;-72
2022/12/09 02:27:04;;;;;;;1.67;1.60;;;-2.00;99.90;;;;;;5046327;28;20318;-70
2022/12/09 02:29:53;;;;;;;2.40;2.30;;;-2.20;99.70;;;;;;5045994;28;20197;-70
2022/12/09 02:32:45;;;;;;;1.15;1.15;;;-2.30;99.90;;;;;;5043782;28;20201;-71
2022/12/09 02:35:20;;;;;;;2.25;2.05;;;-2.20;99.90;;;;;;5048866;28;20258;-70
2022/12/09 02:37:54;;;;;;;2.03;1.92;;;-2.30;99.90;;;;;;5048533;28;20192;-70
2022/12/09 02:40:27;;;;;;;2.42;2.22;;;-2.20;99.90;;;;;;5047074;28;20204;-69
2022/12/09 02:42:55;;;;;;;0.77;0.77;;;-2.30;99.80;;;;;;5052605;28;20192;-70
2022/12/09 02:45:26;;;;;;;1.60;1.55;;;-2.20;99.60;;;;;;5048862;28;20198;-70
2022/12/09 02:47:56;;;;;;;1.70;1.55;;;-2.30;99.40;;;;;;5049150;28;20668;-70
2022/12/09 02:50:29;;;;;;;0.68;0.68;;;-1.70;99.90;;;;;;5049745;28;20286;-70
2022/12/09 02:53:01;;;;;;;1.67;1.52;;;-2.40;99.70;;;;;;5053831;28;20208;-70
2022/12/09 02:55:32;;;;;;;1.25;1.25;;;-2.40;99.80;;;;;;5049992;28;20198;-70
2022/12/09 02:58:01;;;;;;;0.73;0.73;;;-2.40;99.80;;;;;;5049536;28;20188;-70
2022/12/09 03:00:29;;;;;;;2.03;1.92;;;-2.50;99.90;;;;;;5048812;28;20191;-70
2022/12/09 03:02:58;;;;;;;3.00;2.65;;;-2.40;99.90;;;;;;5049051;28;20387;-71
2022/12/09 03:05:38;;;;;;;1.23;1.23;;;-2.40;99.90;;;;;;5048555;28;20207;-69
2022/12/09 03:08:14;;;;;;;1.90;1.40;;;-2.40;99.40;;;;;;5046701;28;20199;-70
2022/12/09 03:10:52;;;;;;;1.13;1.13;;;-2.50;99.20;;;;;;5048799;28;20186;-70
2022/12/09 03:13:31;;;;;;;2.60;1.95;;;-2.50;99.50;;;;;;5049643;28;20195;-70
2022/12/09 03:16:04;;;;;;;0.65;0.65;;;-2.50;99.70;;;;;;5051687;28;20193;-71
2022/12/09 03:18:33;;;;;;;3.80;2.60;;;-2.40;99.90;;;;;;5050110;28;20214;-70
2022/12/09 03:21:05;;;;;;;0.90;0.90;;;-2.60;99.90;;;;;;5047853;28;20292;-69
2022/12/09 03:23:35;;;;;;;1.52;1.45;;;-2.50;99.80;;;;;;5048111;28;20201;-70
2022/12/09 03:26:05;;;;;;;1.27;1.27;;;-2.50;99.80;;;;;;5048817;28;20693;-70
2022/12/09 03:28:36;;;;;;;3.60;3.40;;;-2.50;99.80;;;;;;5049386;28;20295;-70
2022/12/09 03:31:09;;;;;;;3.30;1.55;;;-2.50;99.90;;;;;;5046738;28;20222;-70
2022/12/09 03:33:39;;;;;;;2.15;1.85;;;-2.50;99.90;;;;;;5048416;28;20200;-71
2022/12/09 03:36:10;;;;;;;0.57;0.57;;;-2.40;99.90;;;;;;5048416;28;20742;-69
2022/12/09 03:38:42;;;;;;;5.93;3.38;;;-2.40;99.90;;;;;;5047939;28;20227;-70
2022/12/09 03:41:19;;;;;;;3.10;2.50;;;-2.40;99.90;;;;;;5047074;28;20286;-70
2022/12/09 03:43:53;;;;;;;5.00;2.80;;;-2.50;99.70;;;;;;5050340;28;20238;-70
2022/12/09 03:46:22;;;;;;;0.60;0.60;;;-2.40;99.90;;;;;;5048050;28;20256;-72
2022/12/09 03:48:49;;;;;;;1.05;1.05;;;-2.40;99.60;;;;;;5048997;28;20214;-70
2022/12/09 03:51:24;;;;;;;3.25;3.05;;;-2.50;99.60;;;;;;5050393;28;20246;-70
2022/12/09 03:53:58;;;;;;;1.70;1.70;;;-2.50;99.80;;;;;;5049399;28;20196;-70
2022/12/09 03:56:30;;;;;;;2.22;2.05;;;-2.40;99.90;;;;;;5047249;28;20609;-71
2022/12/09 03:59:00;;;;;;;2.08;1.98;;;-2.50;99.90;;;;;;5047380;28;20224;-70
2022/12/09 04:01:30;;;;;;;1.05;0.95;;;-2.40;99.90;;;;;;5048141;28;20671;-70
2022/12/09 04:03:57;;;;;;;0.82;0.82;;;-2.40;99.90;;;;;;5048794;28;20283;-70
2022/12/09 04:06:25;;;;;;;5.25;4.72;;;-2.40;99.90;;;;;;5047506;28;20210;-70
2022/12/09 04:08:53;;;;;;;1.77;1.67;;;;;;;;;;5047986;28;20316;-70
2022/12/09 04:11:20;;;;;;;3.92;3.63;;;-2.30;99.90;;;;;;5049063;28;20195;-70
2022/12/09 04:13:46;;;;;;;3.30;3.05;;;-2.40;99.90;;;;;;5047399;28;20458;-70
2022/12/09 04:16:13;;;;;;;4.05;3.05;;;-2.40;99.90;;;;;;5048334;28;20220;-69
2022/12/09 04:18:40;;;;;;;0.90;0.90;;;-2.50;99.90;;;;;;5047290;28;20252;-70
2022/12/09 04:21:07;;;;;;;3.85;2.25;;;-2.50;99.90;;;;;;5048962;28;20199;-70
2022/12/09 04:23:36;;;;;;;4.18;3.75;;;-2.60;99.90;;;;;;5047242;28;20208;-70
2022/12/09 04:26:04;;;;;;;2.17;2.08;;;-2.50;99.90;;;;;;5047119;28;20192;-70
2022/12/09 04:28:31;;;;;;;1.88;1.77;;;;;;;;;;5047540;28;20621;-70
2022/12/09 04:30:58;;;;;;;1.42;1.25;;;-2.50;99.90;;;;;;5047160;28;20212;-71
2022/12/09 04:33:25;;;;;;;1.05;1.02;;;-2.60;99.90;;;;;;5049681;28;20218;-70
2022/12/09 04:35:52;;;;;;;1.55;1.45;;;-2.50;99.90;;;;;;5047388;28;20199;-70
2022/12/09 04:38:19;;;;;;;6.18;2.40;;;-2.50;99.90;;;;;;5047024;28;20217;-70
2022/12/09 04:40:47;;;;;;;2.50;2.33;;;-2.50;99.90;;;;;;5047505;28;20232;-72
2022/12/09 04:43:14;;;;;;;2.00;1.67;;;-2.50;99.90;;;;;;5049305;28;20200;-70
2022/12/09 04:45:41;;;;;;;2.97;2.78;;;-2.60;99.90;;;;;;5046535;28;20203;-70
2022/12/09 04:48:07;;;;;;;1.92;1.83;;;-2.60;99.90;;;;;;5046710;28;20208;-72
2022/12/09 04:50:34;;;;;;;6.65;4.30;;;-2.50;99.90;;;;;;5046309;28;20200;-70
2022/12/09 04:53:01;;;;;;;3.40;3.20;;;-2.50;99.90;;;;;;5048800;28;20184;-71
2022/12/09 04:55:28;;;;;;;2.20;2.05;;;-2.50;99.90;;;;;;5046474;28;20211;-70
2022/12/09 04:57:56;;;;;;;1.80;1.70;;;-2.50;99.90;;;;;;5048264;28;20197;-70
2022/12/09 05:00:23;;;;;;;2.53;2.33;;;;;;;;;;5044020;28;20323;-70
2022/12/09 05:02:50;;;;;;;4.55;4.20;;;-2.40;99.90;;;;;;5048247;28;20196;-72
2022/12/09 05:05:17;;;;;;;0.98;0.98;;;-2.30;99.90;;;;;;5046865;28;20203;-70
2022/12/09 05:07:44;;;;;;;2.00;1.88;;;-2.30;99.90;;;;;;5046601;28;20196;-70
2022/12/09 05:10:11;;;;;;;1.85;1.75;;;-2.40;99.90;;;;;;5046741;28;20243;-70
2022/12/09 05:12:37;;;;;;;1.38;1.33;;;-2.30;99.90;;;;;;5048227;28;20642;-72
2022/12/09 05:15:07;;;;;;;0.70;0.70;;;-2.30;99.90;;;;;;5047138;28;20200;-70
2022/12/09 05:17:33;;;;;;;1.17;1.08;;;-2.30;99.90;;;;;;5047668;28;20188;-71
2022/12/09 05:20:00;;;;;;;2.13;1.73;;;-2.30;99.90;;;;;;5046964;28;20703;-71
2022/12/09 05:22:27;;;;;;;3.63;3.30;;;-2.30;99.90;;;;;;5049885;28;20307;-70
2022/12/09 05:24:54;;;;;;;1.50;1.50;;;-2.20;99.90;;;;;;5046856;28;20200;-70
2022/12/09 05:27:21;;;;;;;2.90;2.10;;;-2.30;99.90;;;;;;5045081;28;20196;-70
2022/12/09 05:29:48;;;;;;;1.52;1.42;;;-2.30;99.90;;;;;;5045975;28;20212;-70
2022/12/09 05:32:16;;;;;;;1.20;1.20;;;-2.40;99.90;;;;;;5045697;28;20192;-70
2022/12/09 05:34:43;;;;;;;1.92;1.83;;;-2.50;99.90;;;;;;5044336;28;20196;-70
2022/12/09 05:37:13;;;;;;;3.95;3.65;;;-2.60;99.90;;;;;;5045759;28;20231;-72
2022/12/09 05:39:40;;;;;;;1.70;1.60;;;-2.60;99.90;;;;;;5046905;28;20578;-70
2022/12/09 05:42:07;;;;;;;1.02;1.02;;;-2.50;99.90;;;;;;5046682;28;20286;-70
2022/12/09 05:44:34;;;;;;;1.70;1.63;;;-2.70;99.90;;;;;;5046291;28;20673;-72
2022/12/09 05:47:01;;;;;;;3.80;3.63;;;-2.50;99.90;;;;;;5046576;28;20678;-69
2022/12/09 05:49:29;;;;;;;6.03;4.97;;;-2.60;99.90;;;;;;5045677;28;21160;-68
2022/12/09 05:51:56;;;;;;;4.50;3.97;;;-2.40;99.90;;;;;;5044076;28;20198;-68
2022/12/09 05:54:23;;;;;;;2.60;2.40;;;-2.30;99.90;;;;;;5028621;28;20634;-68
2022/12/09 05:56:50;;;;;;;3.90;2.70;;;-2.20;99.90;;;;;;5043967;28;20203;-69
2022/12/09 05:59:17;;;;;;;4.30;2.25;;;-2.20;99.90;;;;;;5065284;28;20236;-69
2022/12/09 06:01:43;;;;;;;2.13;1.75;;;-2.20;99.90;;;;;;5065292;28;20692;-69
2022/12/09 06:04:10;;;;;;;2.15;1.45;;;-2.20;99.90;;;;;;5059185;28;20524;-68
2022/12/09 06:06:38;;;;;;;3.03;1.70;;;-2.20;99.90;;;;;;5049377;28;20550;-69
2022/12/09 06:09:10;;;;;;;1.33;1.25;;;-2.20;99.90;;;;;;5065073;28;20202;-69
2022/12/09 06:11:37;;;;;;;2.05;1.23;;;-2.00;99.90;;;;;;5062196;28;20669;-69
2022/12/09 06:14:05;;;;;;;1.65;1.55;;;-2.10;99.90;;;;;;5049475;28;20663;-69
2022/12/09 06:16:31;;;;;;;2.28;2.10;;;-2.00;99.90;;;;;;5050678;28;20212;-69
2022/12/09 06:18:58;;;;;;;2.38;2.22;;;-2.00;99.90;;;;;;5047710;28;20210;-69
2022/12/09 06:21:25;;;;;;;4.97;2.95;;;-2.10;99.90;;;;;;5050038;28;20291;-69
2022/12/09 06:23:53;;;;;;;1.27;1.17;;;-2.10;99.90;;;;;;5050770;28;20201;-69
2022/12/09 06:26:23;;;;;;;0.95;0.95;;;-1.90;99.90;;;;;;5048605;28;20204;-69
2022/12/09 06:28:50;;;;;;;1.80;1.70;;;-2.10;99.90;;;;;;5052674;28;20570;-68
2022/12/09 06:31:17;;;;;;;1.33;1.23;;;-2.70;99.90;;;;;;5051251;28;20202;-68
2022/12/09 06:33:44;;;;;;;1.45;1.45;;;-2.30;99.90;;;;;;5050331;28;20203;-69
2022/12/09 06:36:11;;;;;;;1.85;1.80;;;-2.30;99.90;;;;;;5050323;28;20199;-71
2022/12/09 06:38:38;;;;;;;1.45;1.45;;;;;;;;;;5055369;28;20203;-69
2022/12/09 06:41:08;;;;;;;1.63;1.63;;;-2.00;99.90;;;;;;5057927;28;20226;-68
2022/12/09 06:43:35;;;;;;;2.05;1.95;;;-2.10;99.90;;;;;;5049085;28;20214;-68
2022/12/09 06:46:02;;;;;;;0.93;0.93;;;-2.00;99.90;;;;;;5049113;28;20199;-70
2022/12/09 06:48:28;;;;;;;1.90;1.80;;;-2.00;99.90;;;;;;5047236;28;20208;-69
2022/12/09 06:50:55;;;;;;;1.17;1.17;;;-2.00;99.90;;;;;;5049768;28;20200;-69
2022/12/09 06:53:22;;;;;;;5.68;1.92;;;-2.10;99.90;;;;;;5066054;28;20205;-69
2022/12/09 06:55:49;;;;;;;2.00;1.90;;;-2.10;99.90;;;;;;5068091;28;20281;-70
2022/12/09 06:58:17;;;;;;;1.08;1.08;;;-2.10;99.90;;;;;;5068927;28;20209;-69
2022/12/09 07:00:44;;;;;;;2.97;2.67;;;-2.00;99.90;;;;;;5070304;28;20243;-71
2022/12/09 07:03:12;;;;;;;1.15;1.15;;;-1.90;99.90;;;;;;5069738;28;20217;-69
2022/12/09 07:05:39;;;;;;;0.90;0.90;;;-1.90;99.90;;;;;;5069365;28;20220;-69
2022/12/09 07:08:06;;;;;;;1.05;1.05;;;-1.50;99.90;;;;;;5069540;28;20235;-71
2022/12/09 07:10:32;;;;;;;0.77;0.77;;;-2.10;99.90;;;;;;5070295;28;20213;-71
2022/12/09 07:12:59;;;;;;;2.35;2.15;;;-1.90;99.90;;;;;;5069697;28;20219;-69
2022/12/09 07:15:27;;;;;;;2.17;2.08;;;-1.80;99.90;;;;;;5070007;28;20201;-70
2022/12/09 07:17:54;;;;;;;0.98;0.98;;;-1.70;99.90;;;;;;5068977;28;20205;-70
2022/12/09 07:20:21;;;;;;;0.88;0.88;;;-1.70;99.90;;;;;;5069694;28;20221;-69
2022/12/09 07:22:48;;;;;;;0.52;0.52;;;-1.70;99.90;;;;;;5068874;28;20669;-70
2022/12/09 07:25:15;;;;;;;7.05;1.83;;;-1.70;99.90;;;;;;5069670;28;20691;-69
2022/12/09 07:27:41;;;;;;;2.30;2.20;;;-1.80;99.90;;;;;;5068700;28;20294;-71
2022/12/09 07:30:09;;;;;;;6.50;3.15;;;-1.70;99.90;;;;;;5069644;28;20200;-70
2022/12/09 07:32:37;;;;;;;2.33;1.52;;;-1.70;99.90;;;;;;5069617;28;20375;-69
2022/12/09 07:35:04;;;;;;;3.80;3.50;;;-1.50;99.90;;;;;;5069029;28;20202;-69
2022/12/09 07:37:31;;;;;;;2.30;2.20;;;-1.50;99.90;;;;;;5068003;28;20218;-70
2022/12/09 07:39:58;;;;;;;1.52;1.42;;;-1.50;99.90;;;;;;5069636;28;20266;-69
2022/12/09 07:42:24;;;;;;;0.70;0.70;;;-1.50;99.90;;;;;;5063600;28;20194;-71
2022/12/09 07:44:51;;;;;;;2.15;2.05;;;-1.60;99.90;;;;;;5049326;28;20289;-69
2022/12/09 07:47:18;;;;;;;4.20;2.13;;;-1.50;99.90;;;;;;5048380;28;20219;-70
2022/12/09 07:49:46;;;;;;;1.05;1.05;;;-1.40;99.90;;;;;;5048699;28;20205;-69
2022/12/09 07:52:13;;;;;;;1.65;1.55;;;-1.40;99.90;;;;;;5049129;28;20207;-72
2022/12/09 07:54:40;;;;;;;2.70;2.50;;;-1.40;99.90;;;;;;5049227;28;20301;-68
2022/12/09 07:57:07;;;;;;;1.45;1.45;;;-1.30;99.90;;;;;;5048196;28;20206;-69
2022/12/09 07:59:33;;;;;;;3.95;2.95;;;-1.20;99.90;;;;;;5048947;28;20216;-71
2022/12/09 08:02:02;;;;;;;1.52;1.42;;;-1.30;99.90;;;;;;5049009;28;20228;-71
2022/12/09 08:04:29;;;;;;;0.93;0.93;;;-1.20;99.90;;;;;;5049139;28;20295;-71
2022/12/09 08:06:57;;;;;;;3.30;3.15;;;-1.00;99.90;;;;;;5048309;28;20218;-71
2022/12/09 08:09:24;;;;;;;0.88;0.88;;;-1.10;99.90;;;;;;5049309;28;20231;-71
2022/12/09 08:11:51;;;;;;;3.35;3.25;;;-1.00;99.90;;;;;;5049128;28;20206;-71
2022/12/09 08:14:17;;;;;;;2.40;1.95;;;-1.00;99.90;;;;;;5049031;28;20192;-71
2022/12/09 08:16:44;;;;;;;0.82;0.82;;;-0.80;99.90;;;;;;5048119;28;20204;-71
2022/12/09 08:19:11;;;;;;;2.28;1.50;;;-0.80;99.90;;;;;;5049470;28;20206;-71
2022/12/09 08:21:38;;;;;;;1.67;1.58;;;-0.80;99.90;;;;;;5048908;28;20248;-71
2022/12/09 08:24:07;;;;;;;2.10;1.23;;;-0.60;99.90;;;;;;5048832;28;20214;-71
2022/12/09 08:26:35;;;;;;;3.05;2.85;;;-0.50;99.90;;;;;;5048367;28;20287;-71
2022/12/09 08:29:07;;;;;;;2.35;2.25;;;-0.50;99.90;;;;;;5048737;28;20204;-71
2022/12/09 08:31:34;;;;;;;5.65;2.55;;;-0.40;99.90;;;;;;5047704;28;20204;-71
2022/12/09 08:34:03;;;;;;;4.10;2.70;;;-0.30;99.90;;;;;;5048762;28;20696;-71
2022/12/09 08:36:30;;;;;;;1.00;0.95;;;-0.30;99.90;;;;;;5047678;28;20234;-71
2022/12/09 08:38:59;;;;;;;1.15;1.15;;;-0.20;99.90;;;;;;5048552;28;20287;-71
2022/12/09 08:41:35;;;;;;;2.35;2.17;;;-0.20;99.90;;;;;;5048639;28;20228;-71
2022/12/09 08:44:04;;;;;;;1.77;1.67;;;-0.20;99.90;;;;;;5048157;28;20215;-71
2022/12/09 08:46:32;;;;;;;1.80;1.70;;;-0.20;99.90;;;;;;5047883;28;20294;-71
2022/12/09 08:49:00;;;;;;;1.20;1.20;;;-0.10;99.90;;;;;;5048315;28;20556;-71
2022/12/09 08:51:27;;;;;;;1.42;1.33;;;-0.10;99.90;;;;;;5048273;28;20200;-71
2022/12/09 08:53:54;;;;;;;1.20;1.13;;;0.00;99.90;;;;;;5048391;28;20226;-71
2022/12/09 08:56:21;;;;;;;5.65;3.88;;;0.00;99.90;;;;;;5047028;28;20212;-71
2022/12/09 08:58:49;;;;;;;2.97;1.45;;;0.00;99.90;;;;;;5048310;28;20196;-71
2022/12/09 09:01:18;;;;;;;2.60;2.38;;;-0.10;99.90;;;;;;5048001;28;20609;-71
2022/12/09 09:03:45;;;;;;;1.75;1.58;;;-0.10;99.90;;;;;;5048561;28;20207;-71
2022/12/09 09:06:12;;;;;;;4.03;3.72;;;-0.10;99.90;;;;;;5047613;28;20204;-71
2022/12/09 09:08:39;;;;;;;1.50;1.40;;;0.20;99.90;;;;;;5047676;28;20247;-71
2022/12/09 09:11:10;;;;;;;3.67;1.52;;;-0.10;99.90;;;;;;5048003;28;20609;-71
2022/12/09 09:13:38;;;;;;;3.08;1.83;;;0.00;99.90;;;;;;5048199;28;20212;-72
2022/12/09 09:16:10;;;;;;;3.58;2.33;;;0.10;99.90;;;;;;5047244;28;20227;-70
2022/12/09 09:18:37;;;;;;;5.65;1.52;;;0.20;99.90;;;;;;5048169;28;20203;-71
2022/12/09 09:21:05;;;;;;;7.22;2.50;;;0.20;99.90;;;;;;5047799;28;20246;-71
2022/12/09 09:23:32;;;;;;;6.43;2.28;;;0.20;99.90;;;;;;5047359;28;20206;-71
2022/12/09 09:25:58;;;;;;;2.45;2.03;;;0.30;99.90;;;;;;5046979;28;20658;-70
2022/12/09 09:28:25;;;;;;;1.38;1.20;;;0.30;99.90;;;;;;5047828;28;20295;-71
2022/12/09 09:30:58;;;;;;;2.47;2.33;;;0.30;99.90;;;;;;5047681;28;20290;-71
2022/12/09 09:33:27;;;;;;;2.92;2.63;;;0.40;99.90;;;;;;5047865;28;20465;-71
2022/12/09 09:35:57;;;;;;;2.08;1.88;;;0.40;99.90;;;;;;5046217;28;20219;-71
2022/12/09 09:38:24;;;;;;;2.28;2.17;;;0.40;99.90;;;;;;5047725;28;20288;-71
2022/12/09 09:40:51;;;;;;;0.90;0.90;;;0.30;99.60;;;;;;5047515;28;20728;-70
2022/12/09 09:43:21;;;;;;;3.05;2.83;;;0.30;99.70;;;;;;5051760;28;20303;-72
2022/12/09 09:45:48;;;;;;;7.43;2.28;;;0.40;99.90;;;;;;5051249;28;20207;-71
2022/12/09 09:48:18;;;;;;;7.60;3.58;;;0.50;99.90;;;;;;5051397;28;20295;-71
2022/12/09 09:50:53;;;;;;;2.75;2.55;;;2.70;99.90;;;;;;5051696;28;20670;-71
2022/12/09 09:53:24;;;;;;;2.40;2.17;;;0.60;99.80;;;;;;5051711;28;20281;-71
2022/12/09 09:55:57;;;;;;;1.48;1.38;;;0.60;99.60;;;;;;5051234;28;20286;-71
2022/12/09 09:58:28;;;;;;;5.72;2.92;;;0.60;99.60;;;;;;5051856;28;20292;-71
2022/12/09 10:01:01;;;;;;;3.42;2.33;;;0.60;99.50;;;;;;5050915;28;20230;-71
2022/12/09 10:03:39;;;;;;;2.72;2.50;;;0.70;99.70;;;;;;5052129;28;20610;-71
2022/12/09 10:06:18;;;;;;;5.85;3.30;;;0.70;99.70;;;;;;5050892;28;20230;-72
2022/12/09 10:08:54;;;;;;;2.53;2.30;;;0.80;99.60;;;;;;5051256;28;20298;-71
2022/12/09 10:11:26;;;;;;;2.22;2.08;;;0.90;99.50;;;;;;5051000;28;20207;-71
2022/12/09 10:13:59;;;;;;;3.50;2.95;;;0.90;99.30;;;;;;5051466;28;20242;-72
2022/12/09 10:16:33;;;;;;;4.18;2.95;;;0.90;99.30;;;;;;5051068;28;20279;-70
2022/12/09 10:19:06;;;;;;;1.70;1.60;;;1.00;99.60;;;;;;5051350;28;20211;-71
2022/12/09 10:21:39;;;;;;;3.38;3.08;;;0.80;99.00;;;;;;5051079;28;20255;-71
2022/12/09 10:24:18;;;;;;;2.85;2.63;;;0.70;99.10;;;;;;5051384;28;20200;-71
2022/12/09 10:27:01;;;;;;;2.40;1.83;;;0.70;99.50;;;;;;5050379;28;20627;-72
2022/12/09 10:29:43;;;;;;;2.42;2.13;;;0.80;99.70;;;;;;5051035;28;20562;-72
2022/12/09 10:32:16;;;;;;;1.60;1.50;;;0.90;99.60;;;;;;5050429;28;20207;-72
2022/12/09 10:34:43;;;;;;;2.88;2.78;;;0.80;99.40;;;;;;5051055;28;20211;-72
2022/12/09 10:37:25;;;;;;;2.90;2.70;;;0.80;99.40;;;;;;5049933;28;20200;-71
2022/12/09 10:39:57;;;;;;;3.80;2.88;;;0.70;99.30;;;;;;5051045;28;20207;-71
2022/12/09 10:45:11;;;;;;;4.53;3.00;;;0.90;99.90;;;;;;5050931;28;20204;-71
2022/12/09 10:47:38;;;;;;;2.78;1.98;;;0.90;99.60;;;;;;5049757;28;20674;-72
2022/12/09 10:50:07;;;;;;;3.22;2.53;;;0.80;99.60;;;;;;5050521;28;20876;-72
2022/12/09 10:52:43;;;;;;;8.77;2.42;;;0.80;99.70;;;;;;5050289;28;20710;-71
2022/12/09 10:55:23;;;;;;;2.03;1.92;;;0.30;99.90;;;;;;5049868;28;20204;-72
2022/12/09 10:57:50;;;;;;;3.42;2.00;;;0.80;99.90;;;;;;5049843;28;20206;-72
2022/12/09 11:00:24;;;;;;;2.80;1.25;;;0.90;99.90;;;;;;5050458;28;20211;-72
2022/12/09 11:02:52;;;;;;;3.83;2.28;;;0.90;99.80;;;;;;5050339;28;20333;-72
2022/12/09 11:05:26;;;;;;;1.70;1.60;;;0.80;99.60;;;;;;5050264;28;20204;-72
2022/12/09 11:07:56;;;;;;;2.17;1.98;;;0.90;99.90;;;;;;5049531;28;20214;-72
2022/12/09 11:10:25;;;;;;;1.63;1.52;;;1.00;99.90;;;;;;5050385;28;20345;-71
2022/12/09 11:12:54;;;;;;;3.80;3.10;;;1.10;99.90;;;;;;5050221;28;20449;-71
2022/12/09 11:15:27;;;;;;;3.20;2.67;;;1.10;99.90;;;;;;5050241;28;20208;-72
2022/12/09 11:17:57;;;;;;;4.60;2.72;;;1.20;99.90;;;;;;5049292;28;20207;-72
2022/12/09 11:20:27;;;;;;;2.35;2.15;;;1.30;99.70;;;;;;5050165;28;20575;-71
2022/12/09 11:23:13;;;;;;;3.40;3.10;;;1.20;99.40;;;;;;5050022;28;20294;-72
2022/12/09 11:25:52;;;;;;;3.63;2.30;;;1.20;99.90;;;;;;5049339;28;20215;-71
2022/12/09 11:28:24;;;;;;;4.78;3.35;;;1.40;99.90;;;;;;5049714;28;20203;-71
2022/12/09 11:30:54;;;;;;;2.25;2.15;;;1.40;99.90;;;;;;5050154;28;20195;-72
2022/12/09 11:33:25;;;;;;;3.10;2.30;;;1.30;99.60;;;;;;5050088;28;20208;-72
2022/12/09 11:36:00;;;;;;;5.40;3.22;;;1.40;99.70;;;;;;5048867;28;20302;-72
2022/12/09 11:38:44;;;;;;;2.63;2.42;;;1.40;99.50;;;;;;5049462;28;20639;-71
2022/12/09 11:43:59;;;;;;;7.72;3.33;;;1.40;98.90;;;;;;5048850;28;20232;-71
2022/12/09 11:46:29;;;;;;;3.65;3.28;;;1.40;99.30;;;;;;5049016;28;20206;-72
2022/12/09 11:48:59;;;;;;;2.97;1.77;;;1.40;99.40;;;;;;5049921;28;20204;-72
2022/12/09 11:51:28;;;;;;;2.53;2.33;;;1.60;99.50;;;;;;5049075;28;20204;-72
2022/12/09 11:54:02;;;;;;;2.03;1.92;;;1.50;99.00;;;;;;5049600;28;20191;-71
2022/12/09 11:56:29;;;;;;;2.22;2.10;;;1.40;99.20;;;;;;5048738;28;20204;-72
2022/12/09 11:59:00;;;;;;;3.15;2.65;;;1.50;99.20;;;;;;5049361;28;20211;-71
2022/12/09 12:01:37;;;;;;;4.53;3.05;;;1.50;99.20;;;;;;5049755;28;20227;-72
2022/12/09 12:04:08;;;;;;;3.45;3.15;;;1.50;99.20;;;;;;5049191;28;20207;-72
2022/12/09 12:06:44;;;;;;;5.78;4.78;;;1.40;98.90;;;;;;5047689;28;20294;-73
2022/12/09 12:09:19;;;;;;;2.17;1.98;;;1.40;99.50;;;;;;5049220;28;20226;-72
2022/12/09 12:11:51;;;;;;;2.97;2.78;;;1.50;99.60;;;;;;5049592;28;20230;-72
2022/12/09 12:14:24;;;;;;;2.47;2.35;;;1.40;99.60;;;;;;5048587;28;20204;-72
2022/12/09 12:16:57;;;;;;;4.68;3.17;;;1.30;99.20;;;;;;5048519;28;20200;-72
2022/12/09 12:19:30;;;;;;;4.25;1.80;;;1.20;99.50;;;;;;5048898;28;20612;-72
2022/12/09 12:22:21;;;;;;;1.48;1.38;;;1.20;99.70;;;;;;5048864;28;20593;-72
2022/12/09 12:25:07;;;;;;;2.17;2.05;;;1.20;99.60;;;;;;5048479;28;20199;-72
2022/12/09 12:27:50;;;;;;;1.35;1.15;;;1.30;99.70;;;;;;5047984;28;20682;-71
2022/12/09 12:30:27;;;;;;;2.75;1.98;;;1.50;99.80;;;;;;5048785;28;20200;-72
2022/12/09 12:33:05;;;;;;;2.65;2.42;;;1.40;99.70;;;;;;5048413;28;20200;-72
2022/12/09 12:35:45;;;;;;;2.78;2.22;;;1.50;99.70;;;;;;5047758;28;20214;-72
2022/12/09 12:38:21;;;;;;;3.42;1.90;;;1.40;99.60;;;;;;5048403;28;20242;-72
2022/12/09 12:40:57;;;;;;;1.83;1.60;;;1.40;99.70;;;;;;5048589;28;20203;-72
2022/12/09 12:46:46;;;;;;;3.70;3.40;;;1.30;99.70;;;;;;5047712;28;20204;-72
2022/12/09 12:49:34;;;;;;;1.92;1.83;;;1.40;99.80;;;;;;5048370;28;20205;-72
2022/12/09 12:52:12;;;;;;;20.33;4.35;;;1.40;99.90;;;;;;5048278;28;20204;-72
2022/12/09 12:54:47;;;;;;;5.80;4.28;;;1.50;99.80;;;;;;5048313;28;20636;-72
2022/12/09 12:57:21;;;;;;;7.07;3.83;;;1.50;99.70;;;;;;5047859;28;20220;-72
2022/12/09 13:00:06;;;;;;;3.30;1.90;;;1.60;99.70;;;;;;5048351;28;20295;-72
2022/12/09 13:02:41;;;;;;;3.55;2.13;;;1.50;99.60;;;;;;5048438;28;20258;-72
2022/12/09 13:05:17;;;;;;;4.72;3.40;;;1.50;99.90;;;;;;5048255;28;20210;-72
2022/12/09 13:07:48;;;;;;;2.20;2.05;;;1.50;99.90;;;;;;5047345;28;20282;-72
2022/12/09 13:10:22;;;;;;;4.45;3.53;;;1.50;99.90;;;;;;5047828;28;20202;-71
2022/12/09 13:12:54;;;;;;;3.17;2.63;;;1.60;99.90;;;;;;5048140;28;20195;-71